Terminal Aerodrome Forecast
Issued by NWS Charleston, WV

Current Version | Previous Version | Text Only | Print | Product List | Glossary Off
Versions: 1 2 3 4 5 6 7 8 9 10 11 12 13 14 15 16 17 18 19 20 21 22 23 24 25 26 27 28 29 30 31 32

000
FTUS41 KRLX 210237 AAB
TAFCRW
TAF AMD
KCRW 210237Z 2103/2124 05005KT P6SM BKN080
     FM210700 00000KT 5SM -SHRA BKN030
     FM210900 00000KT 2SM -SHRA BR OVC015
     FM211400 30005KT P6SM BKN025
     FM212300 33004KT P6SM SCT025=

USA.gov is the U.S. government's official web portal to all federal, state and local government web resources and services.